sensor_id;sensor_type;location;lat;lon;timestamp;pressure;altitude;pressure_sealevel;temperature;humidity
60019;BME280;45870;42.528;26.740;2024-02-14T00:00:17;99238.25;;;13.94;45.93
60019;BME280;45870;42.528;26.740;2024-02-14T00:02:45;99241.25;;;14.08;45.93
60019;BME280;45870;42.528;26.740;2024-02-14T00:05:14;99238.84;;;14.22;45.19
60019;BME280;45870;42.528;26.740;2024-02-14T00:07:39;99236.75;;;14.89;43.89
60019;BME280;45870;42.528;26.740;2024-02-14T00:10:05;99239.75;;;14.98;43.25
60019;BME280;45870;42.528;26.740;2024-02-14T00:12:31;99240.28;;;14.85;44.07
60019;BME280;45870;42.528;26.740;2024-02-14T00:14:56;99240.00;;;15.12;43.39
60019;BME280;45870;42.528;26.740;2024-02-14T00:17:23;99251.50;;;12.28;50.07
60019;BME280;45870;42.528;26.740;2024-02-14T00:19:48;99246.09;;;13.29;48.03
60019;BME280;45870;42.528;26.740;2024-02-14T00:22:14;99251.31;;;14.13;46.25
60019;BME280;45870;42.528;26.740;2024-02-14T00:24:39;99258.44;;;15.30;43.65
60019;BME280;45870;42.528;26.740;2024-02-14T00:27:05;99266.38;;;14.91;44.34
60019;BME280;45870;42.528;26.740;2024-02-14T00:29:31;99249.41;;;14.08;46.33
60019;BME280;45870;42.528;26.740;2024-02-14T00:31:59;99252.50;;;15.23;43.88
60019;BME280;45870;42.528;26.740;2024-02-14T00:34:25;99257.59;;;15.44;42.98
60019;BME280;45870;42.528;26.740;2024-02-14T00:36:50;99243.44;;;15.58;42.58
60019;BME280;45870;42.528;26.740;2024-02-14T00:39:16;99248.97;;;15.12;43.45
60019;BME280;45870;42.528;26.740;2024-02-14T00:41:41;99242.72;;;14.51;44.66
60019;BME280;45870;42.528;26.740;2024-02-14T00:44:06;99253.88;;;14.65;44.49
60019;BME280;45870;42.528;26.740;2024-02-14T00:46:32;99250.59;;;14.47;44.65
60019;BME280;45870;42.528;26.740;2024-02-14T00:48:57;99254.19;;;13.71;45.94
60019;BME280;45870;42.528;26.740;2024-02-14T00:51:23;99247.81;;;14.22;45.11
60019;BME280;45870;42.528;26.740;2024-02-14T00:53:48;99256.13;;;13.90;45.85
60019;BME280;45870;42.528;26.740;2024-02-14T00:56:13;99244.63;;;14.40;44.94
60019;BME280;45870;42.528;26.740;2024-02-14T00:58:39;99248.16;;;15.07;43.62
60019;BME280;45870;42.528;26.740;2024-02-14T01:01:07;99253.06;;;14.69;44.00
60019;BME280;45870;42.528;26.740;2024-02-14T01:03:32;99256.56;;;15.10;44.07
60019;BME280;45870;42.528;26.740;2024-02-14T01:05:58;99255.97;;;15.48;42.81
60019;BME280;45870;42.528;26.740;2024-02-14T01:08:23;99259.25;;;15.51;42.46
60019;BME280;45870;42.528;26.740;2024-02-14T01:10:49;99266.22;;;15.82;41.83
60019;BME280;45870;42.528;26.740;2024-02-14T01:13:17;99269.13;;;16.01;41.97
60019;BME280;45870;42.528;26.740;2024-02-14T01:15:42;99268.41;;;15.75;42.03
60019;BME280;45870;42.528;26.740;2024-02-14T01:18:08;99257.88;;;15.58;42.98
60019;BME280;45870;42.528;26.740;2024-02-14T01:20:33;99261.03;;;15.80;42.64
60019;BME280;45870;42.528;26.740;2024-02-14T01:22:58;99262.66;;;15.81;42.67
60019;BME280;45870;42.528;26.740;2024-02-14T01:25:25;99255.66;;;15.60;42.26
60019;BME280;45870;42.528;26.740;2024-02-14T01:27:51;99259.28;;;15.30;43.47
60019;BME280;45870;42.528;26.740;2024-02-14T01:30:17;99259.16;;;15.71;42.49
60019;BME280;45870;42.528;26.740;2024-02-14T01:32:43;99254.66;;;15.26;42.96
60019;BME280;45870;42.528;26.740;2024-02-14T01:35:08;99260.56;;;15.68;42.24
60019;BME280;45870;42.528;26.740;2024-02-14T01:37:34;99268.50;;;15.49;42.67
60019;BME280;45870;42.528;26.740;2024-02-14T01:40:00;99257.34;;;15.31;43.20
60019;BME280;45870;42.528;26.740;2024-02-14T01:42:25;99262.34;;;15.88;41.93
60019;BME280;45870;42.528;26.740;2024-02-14T01:44:52;99261.63;;;15.62;42.01
60019;BME280;45870;42.528;26.740;2024-02-14T01:47:19;99267.22;;;15.96;42.08
60019;BME280;45870;42.528;26.740;2024-02-14T01:49:45;99266.38;;;16.06;41.43
60019;BME280;45870;42.528;26.740;2024-02-14T01:52:11;99262.00;;;16.05;41.52
60019;BME280;45870;42.528;26.740;2024-02-14T01:54:36;99263.19;;;15.88;41.80
60019;BME280;45870;42.528;26.740;2024-02-14T01:57:02;99272.97;;;15.89;41.88
60019;BME280;45870;42.528;26.740;2024-02-14T01:59:28;99269.84;;;15.42;43.09
60019;BME280;45870;42.528;26.740;2024-02-14T02:01:53;99266.22;;;15.82;42.06
60019;BME280;45870;42.528;26.740;2024-02-14T02:04:19;99279.59;;;15.68;42.19
60019;BME280;45870;42.528;26.740;2024-02-14T02:06:45;99271.59;;;15.87;41.82
60019;BME280;45870;42.528;26.740;2024-02-14T02:09:11;99275.34;;;16.11;41.99
60019;BME280;45870;42.528;26.740;2024-02-14T02:11:46;99266.50;;;15.70;42.98
60019;BME280;45870;42.528;26.740;2024-02-14T02:14:13;99277.50;;;16.09;41.08
60019;BME280;45870;42.528;26.740;2024-02-14T02:16:39;99278.53;;;15.54;42.50
60019;BME280;45870;42.528;26.740;2024-02-14T02:19:04;99279.56;;;15.78;41.91
60019;BME280;45870;42.528;26.740;2024-02-14T02:21:33;99277.09;;;15.82;42.07
60019;BME280;45870;42.528;26.740;2024-02-14T02:24:00;99276.97;;;14.82;44.23
60019;BME280;45870;42.528;26.740;2024-02-14T02:26:25;99283.22;;;14.73;43.83
60019;BME280;45870;42.528;26.740;2024-02-14T02:28:51;99288.06;;;15.62;42.47
60019;BME280;45870;42.528;26.740;2024-02-14T02:31:16;99284.84;;;15.14;42.98
60019;BME280;45870;42.528;26.740;2024-02-14T02:33:42;99286.97;;;14.46;44.47
60019;BME280;45870;42.528;26.740;2024-02-14T02:36:08;99289.41;;;15.59;42.62
60019;BME280;45870;42.528;26.740;2024-02-14T02:38:35;99299.06;;;16.01;41.82
60019;BME280;45870;42.528;26.740;2024-02-14T02:41:02;99289.72;;;16.17;42.02
60019;BME280;45870;42.528;26.740;2024-02-14T02:43:28;99295.66;;;16.29;41.31
60019;BME280;45870;42.528;26.740;2024-02-14T02:45:53;99302.66;;;16.40;41.12
60019;BME280;45870;42.528;26.740;2024-02-14T02:48:19;99300.91;;;16.64;40.89
60019;BME280;45870;42.528;26.740;2024-02-14T02:50:48;99300.22;;;16.82;40.16
60019;BME280;45870;42.528;26.740;2024-02-14T02:53:14;99300.31;;;16.72;40.55
60019;BME280;45870;42.528;26.740;2024-02-14T02:55:40;99309.53;;;16.81;40.17
60019;BME280;45870;42.528;26.740;2024-02-14T02:58:06;99301.03;;;16.83;40.30
60019;BME280;45870;42.528;26.740;2024-02-14T03:00:32;99305.81;;;16.67;40.85
60019;BME280;45870;42.528;26.740;2024-02-14T03:02:57;99314.56;;;16.54;40.99
60019;BME280;45870;42.528;26.740;2024-02-14T03:05:23;99315.25;;;16.26;41.59
60019;BME280;45870;42.528;26.740;2024-02-14T03:07:49;99316.28;;;15.86;42.16
60019;BME280;45870;42.528;26.740;2024-02-14T03:10:16;99316.66;;;16.23;41.54
60019;BME280;45870;42.528;26.740;2024-02-14T03:12:44;99322.09;;;16.77;40.96
60019;BME280;45870;42.528;26.740;2024-02-14T03:15:10;99321.44;;;16.46;41.39
60019;BME280;45870;42.528;26.740;2024-02-14T03:17:35;99314.53;;;16.05;42.04
60019;BME280;45870;42.528;26.740;2024-02-14T03:20:01;99327.97;;;16.45;41.27
60019;BME280;45870;42.528;26.740;2024-02-14T03:22:27;99326.38;;;16.88;40.71
60019;BME280;45870;42.528;26.740;2024-02-14T03:24:52;99330.84;;;16.69;40.92
60019;BME280;45870;42.528;26.740;2024-02-14T03:27:18;99331.22;;;16.47;41.55
60019;BME280;45870;42.528;26.740;2024-02-14T03:29:44;99332.13;;;15.33;44.02
60019;BME280;45870;42.528;26.740;2024-02-14T03:32:09;99334.84;;;15.13;44.78
60019;BME280;45870;42.528;26.740;2024-02-14T03:34:35;99339.66;;;15.87;43.30
60019;BME280;45870;42.528;26.740;2024-02-14T03:37:01;99345.47;;;16.29;42.10
60019;BME280;45870;42.528;26.740;2024-02-14T03:39:27;99341.50;;;16.66;41.42
60019;BME280;45870;42.528;26.740;2024-02-14T03:41:53;99344.34;;;16.89;40.53
60019;BME280;45870;42.528;26.740;2024-02-14T03:44:19;99352.34;;;16.76;40.93
60019;BME280;45870;42.528;26.740;2024-02-14T03:46:45;99354.69;;;17.26;39.96
60019;BME280;45870;42.528;26.740;2024-02-14T03:49:12;99354.53;;;16.74;41.22
60019;BME280;45870;42.528;26.740;2024-02-14T03:51:38;99357.81;;;16.12;42.31
60019;BME280;45870;42.528;26.740;2024-02-14T03:54:03;99360.88;;;16.59;41.86
60019;BME280;45870;42.528;26.740;2024-02-14T03:56:30;99360.84;;;17.08;40.97
60019;BME280;45870;42.528;26.740;2024-02-14T03:58:58;99361.31;;;16.22;43.20
60019;BME280;45870;42.528;26.740;2024-02-14T04:01:24;99355.28;;;16.84;41.30
60019;BME280;45870;42.528;26.740;2024-02-14T04:03:49;99356.84;;;17.29;40.47
60019;BME280;45870;42.528;26.740;2024-02-14T04:06:15;99355.50;;;17.61;39.95
60019;BME280;45870;42.528;26.740;2024-02-14T04:08:40;99363.13;;;17.30;40.07
60019;BME280;45870;42.528;26.740;2024-02-14T04:11:06;99358.91;;;17.42;40.01
60019;BME280;45870;42.528;26.740;2024-02-14T04:13:31;99365.06;;;17.53;39.95
60019;BME280;45870;42.528;26.740;2024-02-14T04:15:56;99374.22;;;17.72;39.14
60019;BME280;45870;42.528;26.740;2024-02-14T04:18:22;99373.66;;;17.70;39.18
60019;BME280;45870;42.528;26.740;2024-02-14T04:20:47;99380.22;;;16.63;41.08
60019;BME280;45870;42.528;26.740;2024-02-14T04:23:13;99386.66;;;16.18;42.33
60019;BME280;45870;42.528;26.740;2024-02-14T04:25:39;99381.41;;;17.24;40.56
60019;BME280;45870;42.528;26.740;2024-02-14T04:28:05;99381.06;;;17.02;40.73
60019;BME280;45870;42.528;26.740;2024-02-14T04:30:30;99381.84;;;17.41;40.10
60019;BME280;45870;42.528;26.740;2024-02-14T04:32:56;99380.34;;;17.54;40.04
60019;BME280;45870;42.528;26.740;2024-02-14T04:35:21;99388.09;;;17.08;40.39
60019;BME280;45870;42.528;26.740;2024-02-14T04:37:47;99387.59;;;17.35;40.13
60019;BME280;45870;42.528;26.740;2024-02-14T04:40:14;99394.31;;;17.14;40.03
60019;BME280;45870;42.528;26.740;2024-02-14T04:42:42;99395.47;;;16.64;41.32
60019;BME280;45870;42.528;26.740;2024-02-14T04:45:07;99404.72;;;17.07;40.68
60019;BME280;45870;42.528;26.740;2024-02-14T04:47:33;99397.22;;;16.29;42.24
60019;BME280;45870;42.528;26.740;2024-02-14T04:49:59;99409.59;;;15.96;42.88
60019;BME280;45870;42.528;26.740;2024-02-14T04:52:25;99407.09;;;14.79;45.71
60019;BME280;45870;42.528;26.740;2024-02-14T04:54:50;99413.91;;;13.72;48.41
60019;BME280;45870;42.528;26.740;2024-02-14T04:57:16;99415.66;;;13.46;49.46
60019;BME280;45870;42.528;26.740;2024-02-14T04:59:41;99426.22;;;15.09;45.87
60019;BME280;45870;42.528;26.740;2024-02-14T05:02:07;99427.53;;;16.08;43.13
60019;BME280;45870;42.528;26.740;2024-02-14T05:04:32;99434.03;;;16.12;43.47
60019;BME280;45870;42.528;26.740;2024-02-14T05:07:00;99425.53;;;16.97;41.03
60019;BME280;45870;42.528;26.740;2024-02-14T05:09:25;99434.34;;;16.84;40.79
60019;BME280;45870;42.528;26.740;2024-02-14T05:11:51;99437.63;;;15.41;44.81
60019;BME280;45870;42.528;26.740;2024-02-14T05:14:16;99444.03;;;16.57;41.70
60019;BME280;45870;42.528;26.740;2024-02-14T05:16:42;99456.28;;;17.03;41.05
60019;BME280;45870;42.528;26.740;2024-02-14T05:19:07;99456.34;;;16.93;41.03
60019;BME280;45870;42.528;26.740;2024-02-14T05:21:32;99462.28;;;16.41;42.66
60019;BME280;45870;42.528;26.740;2024-02-14T05:23:58;99470.03;;;16.83;41.67
60019;BME280;45870;42.528;26.740;2024-02-14T05:26:23;99484.25;;;14.21;48.55
60019;BME280;45870;42.528;26.740;2024-02-14T05:28:48;99472.63;;;14.87;47.77
60019;BME280;45870;42.528;26.740;2024-02-14T05:31:14;99476.53;;;15.47;45.82
60019;BME280;45870;42.528;26.740;2024-02-14T05:33:40;99481.69;;;15.33;46.65
60019;BME280;45870;42.528;26.740;2024-02-14T05:36:05;99486.69;;;14.69;48.99
60019;BME280;45870;42.528;26.740;2024-02-14T05:38:31;99490.75;;;14.72;48.80
60019;BME280;45870;42.528;26.740;2024-02-14T05:40:58;99496.72;;;14.69;48.70
60019;BME280;45870;42.528;26.740;2024-02-14T05:43:24;99493.16;;;14.58;50.11
60019;BME280;45870;42.528;26.740;2024-02-14T05:45:49;99497.59;;;13.90;50.60
60019;BME280;45870;42.528;26.740;2024-02-14T05:48:15;99503.56;;;14.29;49.71
60019;BME280;45870;42.528;26.740;2024-02-14T05:50:40;99491.19;;;15.16;47.30
60019;BME280;45870;42.528;26.740;2024-02-14T05:53:05;99496.81;;;14.32;49.81
60019;BME280;45870;42.528;26.740;2024-02-14T05:55:31;99499.72;;;14.72;49.23
60019;BME280;45870;42.528;26.740;2024-02-14T05:57:57;99512.69;;;15.42;47.40
60019;BME280;45870;42.528;26.740;2024-02-14T06:00:24;99508.88;;;14.46;49.29
60019;BME280;45870;42.528;26.740;2024-02-14T06:02:49;99511.59;;;15.28;47.23
60019;BME280;45870;42.528;26.740;2024-02-14T06:05:15;99520.09;;;15.77;45.34
60019;BME280;45870;42.528;26.740;2024-02-14T06:07:41;99515.75;;;15.51;46.35
60019;BME280;45870;42.528;26.740;2024-02-14T06:10:07;99514.38;;;15.48;46.02
60019;BME280;45870;42.528;26.740;2024-02-14T06:12:33;99526.91;;;15.60;46.26
60019;BME280;45870;42.528;26.740;2024-02-14T06:14:58;99524.50;;;14.86;47.39
60019;BME280;45870;42.528;26.740;2024-02-14T06:17:23;99535.75;;;14.11;48.73
60019;BME280;45870;42.528;26.740;2024-02-14T06:19:49;99543.16;;;14.67;48.05
60019;BME280;45870;42.528;26.740;2024-02-14T06:22:14;99542.34;;;13.88;49.09
60019;BME280;45870;42.528;26.740;2024-02-14T06:24:40;99540.09;;;13.75;49.31
60019;BME280;45870;42.528;26.740;2024-02-14T06:27:06;99541.63;;;13.66;49.30
60019;BME280;45870;42.528;26.740;2024-02-14T06:29:31;99552.09;;;13.84;49.55
60019;BME280;45870;42.528;26.740;2024-02-14T06:31:56;99546.47;;;14.32;48.04
60019;BME280;45870;42.528;26.740;2024-02-14T06:34:22;99551.56;;;13.87;48.59
60019;BME280;45870;42.528;26.740;2024-02-14T06:36:47;99561.47;;;13.44;49.56
60019;BME280;45870;42.528;26.740;2024-02-14T06:39:13;99561.25;;;14.41;47.76
60019;BME280;45870;42.528;26.740;2024-02-14T06:41:38;99551.72;;;14.39;47.38
60019;BME280;45870;42.528;26.740;2024-02-14T06:44:05;99559.38;;;14.10;48.18
60019;BME280;45870;42.528;26.740;2024-02-14T06:46:30;99557.50;;;14.16;48.28
60019;BME280;45870;42.528;26.740;2024-02-14T06:48:56;99557.41;;;14.89;45.84
60019;BME280;45870;42.528;26.740;2024-02-14T06:51:22;99564.91;;;14.67;45.86
60019;BME280;45870;42.528;26.740;2024-02-14T06:53:48;99573.13;;;14.77;45.68
60019;BME280;45870;42.528;26.740;2024-02-14T06:56:14;99575.25;;;14.33;47.12
60019;BME280;45870;42.528;26.740;2024-02-14T06:58:39;99580.50;;;14.08;47.65
60019;BME280;45870;42.528;26.740;2024-02-14T07:01:05;99581.63;;;14.91;46.11
60019;BME280;45870;42.528;26.740;2024-02-14T07:03:30;99588.09;;;15.62;44.57
60019;BME280;45870;42.528;26.740;2024-02-14T07:05:56;99587.28;;;14.84;45.72
60019;BME280;45870;42.528;26.740;2024-02-14T07:08:22;99595.19;;;14.91;44.99
60019;BME280;45870;42.528;26.740;2024-02-14T07:10:48;99593.81;;;14.83;45.28
60019;BME280;45870;42.528;26.740;2024-02-14T07:13:14;99605.38;;;13.41;46.78
60019;BME280;45870;42.528;26.740;2024-02-14T07:15:39;99580.03;;;12.49;49.12
60019;BME280;45870;42.528;26.740;2024-02-14T07:18:04;99603.22;;;12.40;48.60
60019;BME280;45870;42.528;26.740;2024-02-14T07:20:30;99604.75;;;13.13;46.75
60019;BME280;45870;42.528;26.740;2024-02-14T07:22:56;99609.53;;;12.29;48.57
60019;BME280;45870;42.528;26.740;2024-02-14T07:25:22;99596.56;;;12.14;48.75
60019;BME280;45870;42.528;26.740;2024-02-14T07:27:48;99608.47;;;12.30;48.27
60019;BME280;45870;42.528;26.740;2024-02-14T07:30:15;99615.84;;;12.34;48.56
60019;BME280;45870;42.528;26.740;2024-02-14T07:32:40;99622.56;;;12.15;48.57
60019;BME280;45870;42.528;26.740;2024-02-14T07:35:06;99629.03;;;12.14;48.09
60019;BME280;45870;42.528;26.740;2024-02-14T07:37:31;99631.75;;;12.14;48.30
60019;BME280;45870;42.528;26.740;2024-02-14T07:39:57;99625.25;;;12.65;47.01
60019;BME280;45870;42.528;26.740;2024-02-14T07:42:22;99634.97;;;12.28;48.41
60019;BME280;45870;42.528;26.740;2024-02-14T07:44:48;99636.75;;;12.06;48.77
60019;BME280;45870;42.528;26.740;2024-02-14T07:47:13;99637.69;;;11.83;48.52
60019;BME280;45870;42.528;26.740;2024-02-14T07:49:39;99644.44;;;11.80;48.69
60019;BME280;45870;42.528;26.740;2024-02-14T07:52:04;99641.84;;;12.02;48.25
60019;BME280;45870;42.528;26.740;2024-02-14T07:54:30;99649.22;;;12.95;46.50
60019;BME280;45870;42.528;26.740;2024-02-14T07:56:56;99651.72;;;11.80;48.28
60019;BME280;45870;42.528;26.740;2024-02-14T07:59:21;99660.13;;;12.28;47.47
60019;BME280;45870;42.528;26.740;2024-02-14T08:01:49;99657.00;;;12.36;47.19
60019;BME280;45870;42.528;26.740;2024-02-14T08:04:14;99660.50;;;12.70;46.27
60019;BME280;45870;42.528;26.740;2024-02-14T08:06:40;99671.84;;;12.50;46.35
60019;BME280;45870;42.528;26.740;2024-02-14T08:09:06;99668.06;;;12.18;46.25
60019;BME280;45870;42.528;26.740;2024-02-14T08:11:35;99668.31;;;13.22;45.58
60019;BME280;45870;42.528;26.740;2024-02-14T08:14:00;99678.88;;;12.01;46.67
60019;BME280;45870;42.528;26.740;2024-02-14T08:16:26;99684.94;;;11.92;47.77
60019;BME280;45870;42.528;26.740;2024-02-14T08:18:51;99679.16;;;12.50;46.06
60019;BME280;45870;42.528;26.740;2024-02-14T08:21:23;99681.44;;;12.08;47.07
60019;BME280;45870;42.528;26.740;2024-02-14T08:23:49;99684.13;;;12.08;47.53
60019;BME280;45870;42.528;26.740;2024-02-14T08:26:15;99683.25;;;12.52;46.50
60019;BME280;45870;42.528;26.740;2024-02-14T08:28:41;99679.16;;;12.17;47.08
60019;BME280;45870;42.528;26.740;2024-02-14T08:31:13;99699.44;;;12.47;47.08
60019;BME280;45870;42.528;26.740;2024-02-14T08:33:38;99683.13;;;11.97;47.56
60019;BME280;45870;42.528;26.740;2024-02-14T08:36:05;99693.69;;;12.27;46.93
60019;BME280;45870;42.528;26.740;2024-02-14T08:38:30;99680.47;;;12.47;46.73
60019;BME280;45870;42.528;26.740;2024-02-14T08:40:57;99678.16;;;12.56;46.93
60019;BME280;45870;42.528;26.740;2024-02-14T08:43:22;99690.66;;;12.24;46.83
60019;BME280;45870;42.528;26.740;2024-02-14T08:45:50;99701.97;;;12.37;46.29
60019;BME280;45870;42.528;26.740;2024-02-14T08:48:16;99674.31;;;12.35;46.32
60019;BME280;45870;42.528;26.740;2024-02-14T08:50:42;99683.91;;;12.26;46.47
60019;BME280;45870;42.528;26.740;2024-02-14T08:53:08;99684.41;;;12.40;46.70
60019;BME280;45870;42.528;26.740;2024-02-14T08:55:33;99688.25;;;12.61;46.36
60019;BME280;45870;42.528;26.740;2024-02-14T08:57:59;99681.84;;;12.67;45.53
60019;BME280;45870;42.528;26.740;2024-02-14T09:00:25;99647.50;;;12.50;45.52
60019;BME280;45870;42.528;26.740;2024-02-14T09:02:51;99691.06;;;13.04;45.16
60019;BME280;45870;42.528;26.740;2024-02-14T09:05:18;99691.25;;;13.14;44.78
60019;BME280;45870;42.528;26.740;2024-02-14T09:07:44;99685.06;;;12.64;45.55
60019;BME280;45870;42.528;26.740;2024-02-14T09:10:09;99681.66;;;12.90;45.06
60019;BME280;45870;42.528;26.740;2024-02-14T09:12:37;99678.63;;;12.86;45.28
60019;BME280;45870;42.528;26.740;2024-02-14T09:15:03;99685.75;;;13.09;44.41
60019;BME280;45870;42.528;26.740;2024-02-14T09:17:30;99682.50;;;13.29;44.39
60019;BME280;45870;42.528;26.740;2024-02-14T09:19:55;99687.84;;;13.24;44.38
60019;BME280;45870;42.528;26.740;2024-02-14T09:22:21;99683.66;;;13.60;43.71
60019;BME280;45870;42.528;26.740;2024-02-14T09:24:49;99682.56;;;13.12;43.96
60019;BME280;45870;42.528;26.740;2024-02-14T09:27:15;99692.09;;;13.36;43.56
60019;BME280;45870;42.528;26.740;2024-02-14T09:29:40;99684.06;;;13.46;43.40
60019;BME280;45870;42.528;26.740;2024-02-14T09:32:06;99683.63;;;14.08;42.57
60019;BME280;45870;42.528;26.740;2024-02-14T09:34:31;99686.34;;;13.81;42.57
60019;BME280;45870;42.528;26.740;2024-02-14T09:36:57;99681.38;;;14.27;41.82
60019;BME280;45870;42.528;26.740;2024-02-14T09:39:24;99678.44;;;15.02;40.65
60019;BME280;45870;42.528;26.740;2024-02-14T09:41:51;99685.56;;;14.71;40.91
60019;BME280;45870;42.528;26.740;2024-02-14T09:44:20;99674.34;;;15.05;40.48
60019;BME280;45870;42.528;26.740;2024-02-14T09:46:46;99673.69;;;14.19;42.35
60019;BME280;45870;42.528;26.740;2024-02-14T09:49:12;99671.56;;;14.21;41.91
60019;BME280;45870;42.528;26.740;2024-02-14T09:51:38;99675.97;;;14.59;41.64
60019;BME280;45870;42.528;26.740;2024-02-14T09:54:04;99665.84;;;14.22;41.30
60019;BME280;45870;42.528;26.740;2024-02-14T09:56:30;99672.19;;;13.52;43.27
60019;BME280;45870;42.528;26.740;2024-02-14T09:58:57;99674.00;;;14.22;41.98
60019;BME280;45870;42.528;26.740;2024-02-14T10:01:25;99655.03;;;14.27;41.59
60019;BME280;45870;42.528;26.740;2024-02-14T10:03:52;99660.25;;;14.66;41.29
60019;BME280;45870;42.528;26.740;2024-02-14T10:06:17;99663.38;;;14.89;40.98
60019;BME280;45870;42.528;26.740;2024-02-14T10:08:46;99669.69;;;14.95;40.09
60019;BME280;45870;42.528;26.740;2024-02-14T10:11:12;99667.50;;;14.23;41.55
60019;BME280;45870;42.528;26.740;2024-02-14T10:13:40;99657.84;;;14.69;41.16
60019;BME280;45870;42.528;26.740;2024-02-14T10:16:05;99671.28;;;14.22;40.97
60019;BME280;45870;42.528;26.740;2024-02-14T10:18:33;99665.50;;;14.40;41.60
60019;BME280;45870;42.528;26.740;2024-02-14T10:20:58;99666.47;;;14.29;41.08
60019;BME280;45870;42.528;26.740;2024-02-14T10:23:23;99657.53;;;14.02;41.73
60019;BME280;45870;42.528;26.740;2024-02-14T10:25:50;99661.84;;;13.98;41.48
60019;BME280;45870;42.528;26.740;2024-02-14T10:28:15;99659.41;;;13.96;42.90
60019;BME280;45870;42.528;26.740;2024-02-14T10:30:44;99671.47;;;14.79;41.72
60019;BME280;45870;42.528;26.740;2024-02-14T10:33:10;99675.03;;;14.85;41.04
60019;BME280;45870;42.528;26.740;2024-02-14T10:35:35;99669.72;;;14.58;41.37
60019;BME280;45870;42.528;26.740;2024-02-14T10:38:03;99648.72;;;14.17;41.33
60019;BME280;45870;42.528;26.740;2024-02-14T10:40:32;99658.56;;;15.59;39.46
60019;BME280;45870;42.528;26.740;2024-02-14T10:42:57;99667.66;;;15.27;40.11
60019;BME280;45870;42.528;26.740;2024-02-14T10:45:24;99667.63;;;14.70;40.26
60019;BME280;45870;42.528;26.740;2024-02-14T10:47:51;99670.75;;;15.41;39.54
60019;BME280;45870;42.528;26.740;2024-02-14T10:50:18;99677.41;;;14.34;41.01
60019;BME280;45870;42.528;26.740;2024-02-14T10:52:46;99668.03;;;14.52;41.41
60019;BME280;45870;42.528;26.740;2024-02-14T10:55:14;99677.31;;;14.61;41.21
60019;BME280;45870;42.528;26.740;2024-02-14T10:57:41;99663.50;;;14.63;40.49
60019;BME280;45870;42.528;26.740;2024-02-14T11:00:08;99663.38;;;14.84;41.11
60019;BME280;45870;42.528;26.740;2024-02-14T11:02:35;99671.09;;;15.55;40.26
60019;BME280;45870;42.528;26.740;2024-02-14T11:05:01;99680.19;;;15.23;39.90
60019;BME280;45870;42.528;26.740;2024-02-14T11:07:27;99670.13;;;14.77;40.70
60019;BME280;45870;42.528;26.740;2024-02-14T11:10:06;99677.50;;;15.33;39.81
60019;BME280;45870;42.528;26.740;2024-02-14T11:12:33;99688.25;;;15.13;41.92
60019;BME280;45870;42.528;26.740;2024-02-14T11:14:59;99677.22;;;15.35;39.88
60019;BME280;45870;42.528;26.740;2024-02-14T11:17:26;99685.97;;;15.47;39.96
60019;BME280;45870;42.528;26.740;2024-02-14T11:19:52;99676.34;;;15.24;40.22
60019;BME280;45870;42.528;26.740;2024-02-14T11:22:18;99681.94;;;15.02;40.23
60019;BME280;45870;42.528;26.740;2024-02-14T11:24:47;99682.91;;;14.44;41.77
60019;BME280;45870;42.528;26.740;2024-02-14T11:27:13;99699.03;;;14.56;41.81
60019;BME280;45870;42.528;26.740;2024-02-14T11:29:39;99701.31;;;14.74;41.10
60019;BME280;45870;42.528;26.740;2024-02-14T11:32:06;99697.53;;;14.75;41.93
60019;BME280;45870;42.528;26.740;2024-02-14T11:34:33;99703.66;;;14.61;41.88
60019;BME280;45870;42.528;26.740;2024-02-14T11:36:59;99698.59;;;14.11;42.73
60019;BME280;45870;42.528;26.740;2024-02-14T11:39:25;99698.59;;;13.84;42.87
60019;BME280;45870;42.528;26.740;2024-02-14T11:41:50;99707.97;;;14.57;42.17
60019;BME280;45870;42.528;26.740;2024-02-14T11:44:16;99700.03;;;13.65;43.30
60019;BME280;45870;42.528;26.740;2024-02-14T11:46:41;99705.47;;;13.91;43.21
60019;BME280;45870;42.528;26.740;2024-02-14T11:49:07;99708.28;;;14.97;42.09
60019;BME280;45870;42.528;26.740;2024-02-14T11:51:33;99705.38;;;13.60;43.88
60019;BME280;45870;42.528;26.740;2024-02-14T11:53:59;99703.28;;;13.93;43.30
60019;BME280;45870;42.528;26.740;2024-02-14T11:56:32;99716.50;;;13.85;43.98
60019;BME280;45870;42.528;26.740;2024-02-14T11:59:01;99713.09;;;14.21;43.32
60019;BME280;45870;42.528;26.740;2024-02-14T12:01:30;99725.41;;;13.80;43.76
60019;BME280;45870;42.528;26.740;2024-02-14T12:03:56;99714.63;;;14.12;43.76
60019;BME280;45870;42.528;26.740;2024-02-14T12:06:22;99721.72;;;13.43;44.62
60019;BME280;45870;42.528;26.740;2024-02-14T12:08:48;99717.53;;;13.79;44.19
60019;BME280;45870;42.528;26.740;2024-02-14T12:11:13;99713.56;;;13.65;44.24
60019;BME280;45870;42.528;26.740;2024-02-14T12:13:38;99722.56;;;13.70;44.59
60019;BME280;45870;42.528;26.740;2024-02-14T12:16:08;99723.41;;;13.71;44.71
60019;BME280;45870;42.528;26.740;2024-02-14T12:18:35;99719.25;;;12.86;46.63
60019;BME280;45870;42.528;26.740;2024-02-14T12:21:04;99723.34;;;12.89;46.93
60019;BME280;45870;42.528;26.740;2024-02-14T12:23:33;99679.63;;;13.62;45.55
60019;BME280;45870;42.528;26.740;2024-02-14T12:26:01;99710.84;;;13.21;46.61
60019;BME280;45870;42.528;26.740;2024-02-14T12:28:28;99721.41;;;13.61;45.78
60019;BME280;45870;42.528;26.740;2024-02-14T12:30:55;99721.81;;;13.31;46.14
60019;BME280;45870;42.528;26.740;2024-02-14T12:33:26;99711.31;;;13.57;46.04
60019;BME280;45870;42.528;26.740;2024-02-14T12:35:53;99725.56;;;13.47;46.11
60019;BME280;45870;42.528;26.740;2024-02-14T12:38:19;99722.22;;;13.40;46.17
60019;BME280;45870;42.528;26.740;2024-02-14T12:40:45;99718.03;;;13.32;46.63
60019;BME280;45870;42.528;26.740;2024-02-14T12:43:12;99720.69;;;13.49;46.30